Time;durP1;ratioP1;P1;durP2;ratioP2;P2;SDS_P1;SDS_P2;PMS_P1;PMS_P2;Temp;Humidity;BMP_temperature;BMP_pressure;BME280_temperature;BME280_humidity;BME280_pressure;Samples;Min_cycle;Max_cycle;Signal;HPM_P1;HPM_P2
2022/04/30 00:00:16;;;;;;;9.10;3.20;;;;;;;8.99;75.93;99786.97;1667079;85;21019;-83
2022/04/30 00:02:44;;;;;;;6.28;3.60;;;;;;;8.99;77.74;99786.12;1736406;83;21467;-84
2022/04/30 00:05:11;;;;;;;6.67;3.62;;;;;;;9.02;76.35;99788.26;1736472;83;21035;-83
2022/04/30 00:07:38;;;;;;;11.57;4.42;;;;;;;9.01;78.75;99786.97;1688025;84;21048;-83
2022/04/30 00:10:07;;;;;;;9.68;4.05;;;;;;;9.03;77.26;99781.33;1682298;84;22065;-83
2022/04/30 00:12:34;;;;;;;7.03;3.85;;;;;;;9.05;77.83;99786.07;1717011;83;21414;-83
2022/04/30 00:15:01;;;;;;;8.55;4.42;;;;;;;9.06;78.26;99785.21;1716905;83;21092;-83
2022/04/30 00:17:27;;;;;;;9.53;4.08;;;;;;;9.07;78.98;99783.91;1716971;84;21050;-83
2022/04/30 00:19:54;;;;;;;8.45;4.62;;;;;;;9.02;79.10;99786.97;1744448;81;21083;-82
2022/04/30 00:22:21;;;;;;;7.03;3.80;;;;;;;9.01;80.49;99780.04;1716639;82;21068;-83
2022/04/30 00:24:48;;;;;;;6.05;3.45;;;;;;;8.98;79.78;99780.52;1744691;82;21042;-82
2022/04/30 00:27:17;;;;;;;8.65;3.42;;;;;;;8.97;79.14;99786.13;1716930;84;21055;-83
2022/04/30 00:29:46;;;;;;;7.80;3.40;;;;;;;8.93;80.93;99789.20;1717102;83;21068;-83
2022/04/30 00:32:12;;;;;;;9.35;3.80;;;;;;;8.94;79.91;99783.12;1716867;83;21031;-83
2022/04/30 00:34:39;;;;;;;5.40;3.00;;;;;;;8.93;80.84;99784.42;1716821;83;21074;-83
2022/04/30 00:37:07;;;;;;;8.28;4.20;;;;;;;8.93;79.89;99796.98;1726687;83;21023;-83
2022/04/30 00:39:35;;;;;;;9.58;4.20;;;;;;;8.91;80.24;99793.95;1716649;83;21004;-83
2022/04/30 00:42:03;;;;;;;9.83;4.50;;;;;;;8.88;80.31;99785.77;1716808;83;21031;-83
2022/04/30 00:44:30;;;;;;;9.85;4.25;;;;;;;8.82;80.19;99789.70;1744603;82;21019;-83
2022/04/30 00:46:57;;;;;;;10.13;4.70;;;;;;;8.80;80.35;99781.52;1716870;83;21039;-83
2022/04/30 00:49:24;;;;;;;8.85;4.28;;;;;;;8.75;80.47;99785.00;1717009;84;21549;-83
2022/04/30 00:51:53;;;;;;;9.88;4.80;;;;;;;8.73;80.40;99781.56;1717022;83;20999;-84
2022/04/30 00:54:20;;;;;;;10.50;4.62;;;;;;;8.72;79.63;99789.34;1744927;82;21035;-83
2022/04/30 00:56:59;;;;;;;9.43;4.95;;;;;;;8.67;79.28;99786.76;1717252;83;21039;-83
2022/04/30 00:59:27;;;;;;;7.72;4.15;;;;;;;8.67;81.90;99788.05;1717015;83;21007;-83
2022/04/30 01:02:00;;;;;;;7.83;4.08;;;;;;;8.68;81.54;99793.68;1717242;84;21030;-83
2022/04/30 01:04:24;;;;;;;9.90;4.58;;;;;;;8.68;81.67;99782.45;1716582;83;21066;-83
2022/04/30 01:06:55;;;;;;;6.78;4.05;;;;;;;8.68;79.95;99787.64;1717660;83;21040;-84
2022/04/30 01:09:25;;;;;;;8.03;4.00;;;;;;;8.68;79.96;99786.34;1717481;83;21075;-83
2022/04/30 01:11:59;;;;;;;7.00;3.77;;;;;;;8.63;81.71;99788.09;1717351;83;21040;-83
2022/04/30 01:14:27;;;;;;;;;;;;;;;8.64;80.49;99781.61;1720017;83;21047;-83
2022/04/30 01:16:59;;;;;;;8.13;4.37;;;;;;;8.60;81.49;99777.31;1717461;84;20129;-83
2022/04/30 01:19:27;;;;;;;12.60;4.12;;;;;;;8.57;81.54;99776.03;1717558;83;21024;-84
2022/04/30 01:22:00;;;;;;;6.97;3.67;;;;;;;8.54;82.32;99773.47;1717371;82;21083;-84
2022/04/30 01:24:28;;;;;;;;;;;;;;;8.55;81.46;99772.58;1719919;83;21023;-83
2022/04/30 01:27:00;;;;;;;10.13;3.83;;;;;;;8.51;82.05;99770.44;1717459;84;20140;-84
2022/04/30 01:29:33;;;;;;;8.85;3.77;;;;;;;8.49;81.26;99765.70;1717489;84;21047;-83
2022/04/30 01:37:36;;;;;;;7.00;3.35;;;;;;;8.56;81.11;99767.40;1717664;84;20956;-83
2022/04/30 01:40:03;;;;;;;7.00;3.58;;;;;;;8.61;80.01;99765.21;1717350;83;21059;-84
2022/04/30 01:42:39;;;;;;;6.25;3.35;;;;;;;8.61;81.30;99767.80;1717805;83;20984;-83
2022/04/30 01:45:08;;;;;;;12.00;3.75;;;;;;;8.63;79.91;99769.50;1717444;84;21051;-83
2022/04/30 01:47:39;;;;;;;6.28;3.47;;;;;;;8.64;79.51;99769.95;1716965;83;21059;-83
2022/04/30 01:50:07;;;;;;;6.90;3.50;;;;;;;8.60;78.85;99769.98;1720520;83;21048;-83
2022/04/30 01:52:34;;;;;;;6.75;3.20;;;;;;;8.56;79.82;99771.73;1744035;82;21051;-83
2022/04/30 01:55:00;;;;;;;6.42;3.42;;;;;;;8.50;80.06;99773.06;1714887;83;21060;-83
2022/04/30 01:57:28;;;;;;;8.68;3.37;;;;;;;8.49;80.26;99770.88;1714716;84;21047;-83
2022/04/30 01:59:57;;;;;;;5.30;3.05;;;;;;;8.45;78.53;99770.48;1706925;83;21023;-84
2022/04/30 02:02:28;;;;;;;6.92;3.17;;;;;;;8.39;78.63;99772.22;1708911;83;21038;-83
2022/04/30 02:04:59;;;;;;;10.13;3.17;;;;;;;8.33;79.33;99766.19;1688175;84;21054;-83
2022/04/30 02:07:28;;;;;;;10.78;3.62;;;;;;;8.28;78.33;99761.92;1707962;84;21031;-83
2022/04/30 02:10:10;;;;;;;6.45;2.90;;;;;;;8.21;79.31;99756.34;1717347;84;21004;-83
2022/04/30 02:12:38;;;;;;;5.08;3.05;;;;;;;8.17;79.27;99762.81;1717355;84;21093;-83
2022/04/30 02:15:08;;;;;;;6.20;3.47;;;;;;;8.13;79.20;99761.55;1717562;83;21039;-83
2022/04/30 02:17:38;;;;;;;5.50;3.00;;;;;;;8.06;79.15;99762.02;1717501;83;21080;-84
2022/04/30 02:20:29;;;;;;;6.30;2.90;;;;;;;8.01;78.84;99757.28;1717475;82;21031;-84
2022/04/30 02:22:56;;;;;;;6.55;3.67;;;;;;;7.96;79.90;99753.87;1716809;83;21086;-83
2022/04/30 02:25:24;;;;;;;5.90;3.05;;;;;;;7.93;80.08;99750.83;1717677;83;20998;-83
2022/04/30 02:27:56;;;;;;;6.20;3.08;;;;;;;7.91;81.05;99747.83;1717607;83;21017;-82
2022/04/30 02:30:26;;;;;;;8.10;2.60;;;;;;;7.93;81.57;99749.54;1717476;83;21044;-83
2022/04/30 02:33:03;;;;;;;5.92;2.92;;;;;;;7.95;80.27;99745.66;1717697;83;21486;-84
2022/04/30 02:35:34;;;;;;;8.40;3.20;;;;;;;7.94;80.83;99749.13;1717671;84;21031;-84
2022/04/30 02:38:05;;;;;;;6.83;2.85;;;;;;;7.93;80.05;99740.48;1717624;83;21007;-84
2022/04/30 02:40:36;;;;;;;6.80;2.85;;;;;;;7.89;80.86;99741.80;1696707;80;21067;-84
2022/04/30 02:43:15;;;;;;;3.65;2.30;;;;;;;7.89;81.30;99737.91;1716692;80;20984;-84
2022/04/30 02:45:43;;;;;;;5.57;2.60;;;;;;;7.90;80.45;99740.51;1678558;81;21120;-90
2022/04/30 02:48:12;;;;;;;6.62;2.40;;;;;;;7.88;80.89;99738.36;1683763;85;21070;-86
2022/04/30 02:50:38;;;;;;;6.10;2.77;;;;;;;7.86;81.20;99741.80;1704529;84;20972;-82
2022/04/30 02:53:05;;;;;;;5.85;2.60;;;;;;;7.86;80.02;99741.80;1704699;84;21090;-84
2022/04/30 02:55:33;;;;;;;5.22;2.37;;;;;;;7.83;81.02;99739.23;1717553;84;21063;-84
2022/04/30 03:00:48;;;;;;;8.73;2.87;;;;;;;7.82;81.90;99735.80;1713115;84;21047;-84
2022/04/30 03:03:16;;;;;;;5.80;2.80;;;;;;;7.83;82.00;99736.65;1689122;85;21745;-83
2022/04/30 03:05:44;;;;;;;6.95;2.52;;;;;;;7.83;81.08;99739.23;1702030;84;21031;-84
2022/04/30 03:08:14;;;;;;;8.68;3.25;;;;;;;7.82;82.53;99737.50;1687676;85;21079;-84
2022/04/30 03:10:47;;;;;;;6.30;3.10;;;;;;;7.83;81.50;99735.35;1687500;82;21047;-84
2022/04/30 03:13:14;;;;;;;8.80;3.50;;;;;;;7.80;82.25;99740.12;1677346;85;20996;-83
2022/04/30 03:15:45;;;;;;;6.92;3.55;;;;;;;7.80;82.92;99736.23;1690146;85;20985;-83
2022/04/30 03:23:47;;;;;;;12.43;3.70;;;;;;;7.83;82.14;99727.15;1655395;86;21110;-84
2022/04/30 03:26:15;;;;;;;10.25;4.05;;;;;;;7.83;81.46;99732.77;1694561;84;21063;-84
2022/04/30 03:28:42;;;;;;;9.05;3.77;;;;;;;7.82;83.21;99729.73;1688017;85;21057;-83
2022/04/30 03:31:10;;;;;;;9.18;3.83;;;;;;;7.82;83.91;99733.61;1687732;85;21059;-83
2022/04/30 03:33:39;;;;;;;11.03;4.30;;;;;;;7.78;85.70;99734.09;1688137;85;21017;-84
2022/04/30 03:36:06;;;;;;;6.92;4.10;;;;;;;7.78;83.34;99737.97;1688192;85;21044;-84
2022/04/30 03:38:33;;;;;;;7.15;3.75;;;;;;;7.75;84.48;99731.05;1688349;85;21033;-84
2022/04/30 03:41:00;;;;;;;5.97;3.33;;;;;;;7.75;86.15;99738.82;1686245;85;20960;-84
2022/04/30 03:43:26;;;;;;;7.33;4.20;;;;;;;7.76;86.00;99739.27;1704242;84;21047;-83
2022/04/30 03:45:53;;;;;;;6.35;3.20;;;;;;;7.79;85.75;99740.97;1692587;83;21114;-83
2022/04/30 03:48:20;;;;;;;7.80;3.58;;;;;;;7.83;85.93;99744.41;1682837;82;21084;-84
2022/04/30 03:50:47;;;;;;;9.73;4.30;;;;;;;7.83;85.91;99742.67;1696037;84;21049;-83
2022/04/30 03:53:13;;;;;;;7.72;4.17;;;;;;;7.86;85.36;99746.56;1711238;84;21025;-83
2022/04/30 03:55:40;;;;;;;7.72;3.87;;;;;;;7.88;84.71;99747.86;1706595;83;21031;-84
2022/04/30 03:58:07;;;;;;;9.03;4.10;;;;;;;7.81;86.14;99750.03;1683196;85;21086;-83
2022/04/30 04:00:33;;;;;;;7.58;4.00;;;;;;;7.82;85.29;99751.73;1685510;84;20996;-84
2022/04/30 04:03:00;;;;;;;8.28;4.22;;;;;;;7.84;85.42;99757.36;1712428;84;21027;-84
2022/04/30 04:05:28;;;;;;;9.50;5.40;;;;;;;7.84;86.25;99752.59;1711821;84;20990;-84
2022/04/30 04:07:57;;;;;;;6.83;3.98;;;;;;;7.86;86.05;99759.51;1656572;86;21059;-83
2022/04/30 04:10:24;;;;;;;7.58;4.08;;;;;;;7.90;84.84;99757.34;1655657;87;21043;-84
2022/04/30 04:12:50;;;;;;;8.53;4.05;;;;;;;7.91;85.01;99761.62;1678003;85;20973;-85
2022/04/30 04:18:02;;;;;;;7.42;3.83;;;;;;;;;;1684533;85;21034;-84
2022/04/30 04:20:29;;;;;;;7.78;3.77;;;;;;;8.00;86.08;99772.81;1685200;85;21007;-83
2022/04/30 04:22:55;;;;;;;8.55;3.90;;;;;;;8.02;85.36;99774.55;1683013;85;21125;-85
2022/04/30 04:28:08;;;;;;;6.22;3.58;;;;;;;8.06;86.61;99778.85;1710257;84;21050;-84
2022/04/30 04:30:35;;;;;;;6.85;3.67;;;;;;;8.14;84.68;99780.97;1712502;84;21142;-83
2022/04/30 04:33:03;;;;;;;6.60;3.62;;;;;;;8.16;85.53;99779.23;1707714;84;21569;-84
2022/04/30 04:35:30;;;;;;;6.42;3.05;;;;;;;8.23;86.69;99779.20;1668516;84;21096;-84
2022/04/30 04:37:56;;;;;;;6.25;3.50;;;;;;;8.27;85.42;99777.03;1655640;85;21072;-85
2022/04/30 04:40:23;;;;;;;5.72;3.70;;;;;;;8.32;84.74;99776.58;1655475;87;21081;-84
2022/04/30 04:42:50;;;;;;;7.87;3.98;;;;;;;8.39;85.43;99784.73;1655530;87;21140;-84
2022/04/30 04:45:17;;;;;;;6.85;3.85;;;;;;;8.45;85.24;99782.14;1665638;85;21131;-83
2022/04/30 04:47:49;;;;;;;6.72;3.58;;;;;;;8.49;85.25;99781.25;1675691;85;21052;-83
2022/04/30 04:50:14;;;;;;;7.30;3.70;;;;;;;8.56;84.65;99783.39;1660393;86;21063;-84
2022/04/30 04:52:43;;;;;;;9.30;4.28;;;;;;;8.55;84.51;99783.84;1675803;85;21082;-84
2022/04/30 04:55:11;;;;;;;6.95;4.30;;;;;;;8.58;84.73;99773.88;1674661;84;21020;-84
2022/04/30 04:57:38;;;;;;;7.83;4.03;;;;;;;8.63;84.72;99773.84;1688387;85;21021;-84
2022/04/30 05:00:08;;;;;;;7.70;3.80;;;;;;;8.67;84.84;99775.53;1667555;85;21542;-83
2022/04/30 05:02:36;;;;;;;6.12;3.65;;;;;;;8.74;83.57;99775.94;1676664;86;21067;-84
2022/04/30 05:05:03;;;;;;;6.53;3.72;;;;;;;8.80;83.34;99774.59;1653789;87;21594;-83
2022/04/30 05:07:30;;;;;;;7.05;3.70;;;;;;;8.87;84.07;99780.59;1681098;85;21428;-83
2022/04/30 05:09:57;;;;;;;8.18;3.77;;;;;;;8.90;83.87;99767.17;1688302;85;21007;-86
2022/04/30 05:12:23;;;;;;;7.35;3.52;;;;;;;8.98;84.25;99770.16;1687650;85;21041;-83
2022/04/30 05:14:53;;;;;;;8.60;3.25;;;;;;;9.06;84.62;99769.20;1693242;84;21007;-83
2022/04/30 05:17:18;;;;;;;8.85;3.25;;;;;;;9.16;83.52;99768.69;1690181;84;21011;-83
2022/04/30 05:19:45;;;;;;;13.53;3.15;;;;;;;9.24;83.41;99771.23;1687519;85;21068;-83
2022/04/30 05:22:14;;;;;;;11.60;3.95;;;;;;;9.35;82.77;99774.15;1687309;85;21039;-83
2022/04/30 05:24:41;;;;;;;12.40;3.58;;;;;;;9.40;82.58;99777.14;1682498;85;21032;-82
2022/04/30 05:27:10;;;;;;;9.73;3.35;;;;;;;9.49;82.80;99774.44;1663451;85;20993;-84
2022/04/30 05:29:37;;;;;;;6.58;3.20;;;;;;;9.57;82.20;99779.14;1683727;85;21011;-84
2022/04/30 05:32:05;;;;;;;6.03;3.12;;;;;;;9.68;81.80;99775.97;1686143;85;21532;-83
2022/04/30 05:34:32;;;;;;;5.05;3.02;;;;;;;9.75;81.85;99776.34;1686941;84;21103;-83
2022/04/30 05:36:59;;;;;;;5.37;2.90;;;;;;;9.85;81.12;99777.55;1698624;84;21021;-84
2022/04/30 05:39:26;;;;;;;5.05;3.17;;;;;;;9.91;81.01;99772.28;1697618;84;21022;-84
2022/04/30 05:41:52;;;;;;;7.53;3.20;;;;;;;10.00;80.67;99773.91;1668942;85;21052;-84
2022/04/30 05:44:19;;;;;;;6.30;3.10;;;;;;;10.07;80.98;99776.86;1689592;84;21015;-85
2022/04/30 05:46:46;;;;;;;5.60;3.17;;;;;;;10.15;80.31;99766.78;1698122;84;21076;-84
2022/04/30 05:49:12;;;;;;;5.75;3.20;;;;;;;10.19;80.18;99772.80;1687772;85;21094;-83
2022/04/30 05:51:39;;;;;;;7.40;3.42;;;;;;;10.27;80.11;99775.31;1690612;84;21043;-83
2022/04/30 05:54:05;;;;;;;9.08;3.42;;;;;;;10.35;80.15;99777.39;1703566;84;21010;-84
2022/04/30 05:56:32;;;;;;;8.25;3.15;;;;;;;10.43;79.42;99776.00;1685458;85;21050;-84
2022/04/30 05:58:59;;;;;;;8.63;3.87;;;;;;;10.53;79.02;99779.73;1679773;85;21046;-84
2022/04/30 06:01:26;;;;;;;6.40;3.05;;;;;;;10.65;78.87;99779.16;1660191;87;21077;-82
2022/04/30 06:03:53;;;;;;;6.20;2.75;;;;;;;10.73;78.59;99779.45;1667486;84;20986;-84
2022/04/30 06:06:20;;;;;;;6.97;3.20;;;;;;;10.84;78.53;99787.11;1688634;85;21063;-84
2022/04/30 06:08:48;;;;;;;5.85;2.77;;;;;;;10.93;78.28;99792.15;1690402;85;21097;-84
2022/04/30 06:11:14;;;;;;;7.85;3.40;;;;;;;11.03;77.86;99788.12;1716305;84;21363;-84
2022/04/30 06:13:41;;;;;;;8.05;3.27;;;;;;;11.10;77.36;99789.72;1716787;84;21062;-83
2022/04/30 06:16:08;;;;;;;10.23;3.60;;;;;;;11.22;77.22;99796.05;1691965;84;21048;-84
2022/04/30 06:18:35;;;;;;;4.67;3.00;;;;;;;11.25;76.69;99786.88;1674037;85;21090;-84
2022/04/30 06:21:01;;;;;;;9.33;3.45;;;;;;;11.35;76.25;99790.18;1660096;87;21046;-84
2022/04/30 06:23:28;;;;;;;5.22;3.22;;;;;;;11.45;75.13;99785.22;1669654;85;21038;-83
2022/04/30 06:25:55;;;;;;;5.55;3.20;;;;;;;11.53;73.81;99787.70;1680998;84;20995;-82
2022/04/30 06:28:21;;;;;;;6.03;3.20;;;;;;;11.61;74.30;99792.31;1685857;84;21026;-84
2022/04/30 06:30:48;;;;;;;7.00;3.25;;;;;;;11.69;73.16;99783.06;1667825;85;21019;-84
2022/04/30 06:33:15;;;;;;;5.45;3.10;;;;;;;11.79;73.51;99782.45;1661966;86;21052;-84
2022/04/30 06:35:41;;;;;;;5.75;3.05;;;;;;;11.90;73.09;99783.15;1653178;86;21061;-85
2022/04/30 06:38:08;;;;;;;6.03;2.92;;;;;;;12.00;73.13;99774.70;1631543;87;20982;-85
2022/04/30 06:40:35;;;;;;;6.28;2.35;;;;;;;12.11;72.22;99786.60;1661630;86;21094;-85
2022/04/30 06:43:02;;;;;;;4.90;2.90;;;;;;;12.18;71.20;99781.30;1664769;85;21043;-83
2022/04/30 06:45:29;;;;;;;5.30;2.75;;;;;;;12.27;72.08;99776.72;1639657;85;21118;-84
2022/04/30 06:47:56;;;;;;;4.22;2.45;;;;;;;12.41;69.78;99779.03;1704856;84;21105;-84
2022/04/30 06:50:23;;;;;;;4.42;2.60;;;;;;;12.53;67.69;99779.21;1706342;84;21071;-84
2022/04/30 06:58:19;;;;;;;7.50;2.95;;;;;;;12.85;68.48;99775.89;1669615;85;21082;-84
2022/04/30 07:03:24;;;;;;;4.80;2.40;;;;;;;13.02;64.67;99772.86;1681369;85;21068;-84
2022/04/30 07:05:52;;;;;;;11.03;2.83;;;;;;;13.08;64.53;99766.64;1681370;85;21104;-84
2022/04/30 07:08:19;;;;;;;4.75;2.40;;;;;;;13.12;61.46;99772.19;1680344;85;20972;-85
2022/04/30 07:10:46;;;;;;;5.78;2.67;;;;;;;13.17;64.34;99770.77;1691682;84;21063;-85
2022/04/30 07:13:12;;;;;;;5.42;2.70;;;;;;;13.22;60.51;99772.37;1681692;85;21067;-85
2022/04/30 07:15:40;;;;;;;4.97;2.45;;;;;;;13.33;63.47;99776.91;1683952;85;21027;-84
2022/04/30 07:18:06;;;;;;;6.05;2.65;;;;;;;13.40;63.70;99783.28;1663165;85;21011;-85
2022/04/30 07:20:35;;;;;;;5.25;3.15;;;;;;;13.41;63.13;99778.45;1681446;85;21546;-84
2022/04/30 07:23:02;;;;;;;6.78;2.83;;;;;;;13.42;63.35;99779.73;1681665;85;21011;-83
2022/04/30 07:25:28;;;;;;;4.90;2.92;;;;;;;13.50;63.67;99781.69;1681931;85;21070;-85
2022/04/30 07:27:55;;;;;;;7.00;3.10;;;;;;;13.53;63.85;99771.17;1682020;85;21075;-85
2022/04/30 07:30:22;;;;;;;5.90;3.27;;;;;;;13.60;62.30;99782.31;1681821;85;21015;-85
2022/04/30 07:32:49;;;;;;;8.15;3.20;;;;;;;13.70;63.52;99769.40;1682059;85;21036;-84
2022/04/30 07:35:15;;;;;;;7.00;2.92;;;;;;;13.78;63.55;99776.19;1669653;85;21046;-83
2022/04/30 07:37:42;;;;;;;4.33;2.70;;;;;;;13.85;62.31;99779.05;1681741;85;21007;-84
2022/04/30 07:40:11;;;;;;;5.25;2.70;;;;;;;13.82;61.11;99777.36;1673528;84;21044;-83
2022/04/30 07:42:38;;;;;;;6.17;3.45;;;;;;;13.88;61.06;99768.03;1654828;87;21054;-83
2022/04/30 07:45:05;;;;;;;4.50;2.72;;;;;;;13.94;61.41;99777.47;1659834;85;21105;-84
2022/04/30 07:47:31;;;;;;;6.00;2.80;;;;;;;13.93;60.99;99770.55;1686340;85;21027;-85
2022/04/30 07:49:58;;;;;;;4.85;3.00;;;;;;;14.01;62.23;99766.41;1659290;85;21509;-82
2022/04/30 07:52:25;;;;;;;4.83;2.75;;;;;;;14.12;60.88;99774.35;1671436;85;21056;-86
2022/04/30 07:54:52;;;;;;;4.35;2.72;;;;;;;14.10;60.13;99753.05;1685837;85;21039;-85
2022/04/30 07:57:20;;;;;;;6.47;3.20;;;;;;;14.21;60.80;99760.60;1687285;85;21011;-85
2022/04/30 07:59:46;;;;;;;4.00;2.77;;;;;;;14.27;60.41;99752.58;1687279;85;21009;-86
2022/04/30 08:02:13;;;;;;;5.67;2.80;;;;;;;14.33;59.30;99754.55;1687239;85;21067;-85
2022/04/30 08:04:40;;;;;;;4.58;3.00;;;;;;;14.41;60.14;99749.08;1687369;85;20988;-84
2022/04/30 08:07:06;;;;;;;6.00;2.80;;;;;;;14.49;58.05;99749.70;1689648;84;21019;-85
2022/04/30 08:09:33;;;;;;;6.42;2.80;;;;;;;14.60;58.94;99748.55;1687028;85;21042;-85
2022/04/30 08:11:59;;;;;;;4.40;2.42;;;;;;;14.69;58.26;99747.80;1686920;85;21099;-86
2022/04/30 08:14:26;;;;;;;4.72;2.50;;;;;;;14.81;59.15;99744.41;1703528;84;21008;-85
2022/04/30 08:16:54;;;;;;;4.15;2.58;;;;;;;14.93;57.86;99738.77;1705387;84;21038;-86
2022/04/30 08:19:21;;;;;;;4.85;2.60;;;;;;;15.00;57.37;99748.14;1690401;84;21062;-86
2022/04/30 08:21:48;;;;;;;7.40;2.60;;;;;;;15.07;57.57;99735.70;1686775;85;21031;-86
2022/04/30 08:24:16;;;;;;;9.13;4.58;;;;;;;15.11;55.64;99734.69;1687235;85;21086;-85
2022/04/30 08:26:44;;;;;;;4.47;2.98;;;;;;;15.25;57.97;99739.45;1691349;85;21052;-86
2022/04/30 08:29:11;;;;;;;4.80;3.37;;;;;;;15.40;56.40;99731.08;1693463;84;20987;-86
2022/04/30 08:31:37;;;;;;;4.72;3.12;;;;;;;15.40;55.30;99727.58;1689521;84;21006;-86
2022/04/30 08:34:04;;;;;;;6.00;2.92;;;;;;;15.51;55.28;99729.38;1687592;85;21061;-86
2022/04/30 08:36:31;;;;;;;6.15;2.70;;;;;;;15.62;55.43;99729.87;1687501;85;20978;-86
2022/04/30 08:38:57;;;;;;;5.22;2.77;;;;;;;15.71;53.63;99722.12;1687077;85;21036;-86
2022/04/30 08:41:24;;;;;;;4.80;2.60;;;;;;;15.76;52.88;99728.09;1687727;84;21001;-86
2022/04/30 08:43:50;;;;;;;4.10;2.00;;;;;;;15.85;52.24;99716.41;1687888;84;21077;-87
2022/04/30 08:46:20;;;;;;;4.72;2.50;;;;;;;15.93;53.67;99714.81;1686178;84;21129;-86
2022/04/30 08:48:47;;;;;;;5.08;2.25;;;;;;;16.02;55.23;99721.03;1682072;85;21024;-85
2022/04/30 08:51:18;;;;;;;5.22;2.20;;;;;;;16.18;54.73;99718.23;1682610;85;21345;-86
2022/04/30 08:53:44;;;;;;;3.50;2.08;;;;;;;16.24;52.57;99710.12;1696892;85;21035;-87
2022/04/30 08:56:11;;;;;;;3.98;2.25;;;;;;;16.32;53.31;99713.76;1692717;84;21070;-87
2022/04/30 08:58:38;;;;;;;4.62;2.92;;;;;;;16.41;52.36;99709.48;1688027;84;21031;-86
2022/04/30 09:01:07;;;;;;;4.35;2.30;;;;;;;16.50;53.51;99702.53;1682301;85;21368;-86
2022/04/30 09:03:36;;;;;;;6.58;2.00;;;;;;;16.56;51.53;99699.28;1681622;85;21038;-86
2022/04/30 09:06:05;;;;;;;3.67;1.92;;;;;;;16.70;52.94;99710.92;1681823;85;21027;-86
2022/04/30 09:08:32;;;;;;;3.77;2.08;;;;;;;16.81;52.02;99698.72;1682439;85;21036;-86
2022/04/30 09:11:08;;;;;;;4.78;1.90;;;;;;;16.79;51.88;99695.70;1682559;85;20995;-86
2022/04/30 09:13:46;;;;;;;3.50;2.05;;;;;;;16.81;49.46;99692.16;1681469;85;21065;-85
2022/04/30 09:16:24;;;;;;;3.90;2.00;;;;;;;16.89;50.15;99698.38;1682118;85;21015;-86
2022/04/30 09:18:55;;;;;;;4.87;1.90;;;;;;;16.95;49.94;99686.33;1682627;85;21016;-86
2022/04/30 09:21:23;;;;;;;5.50;2.08;;;;;;;17.05;49.06;99680.20;1682961;85;20972;-87
2022/04/30 09:23:49;;;;;;;4.72;2.27;;;;;;;17.05;50.54;99680.20;1682615;85;21022;-86
2022/04/30 09:26:16;;;;;;;5.75;2.22;;;;;;;17.16;49.73;99666.16;1682757;85;21015;-86
2022/04/30 09:28:46;;;;;;;3.05;1.82;;;;;;;17.35;48.08;99667.98;1682686;85;21083;-86
2022/04/30 09:31:16;;;;;;;3.25;1.92;;;;;;;17.47;49.24;99666.14;1686100;85;20951;-86
2022/04/30 09:33:55;;;;;;;3.02;1.85;;;;;;;17.56;48.66;99667.50;1681607;85;21078;-85
2022/04/30 09:39:16;;;;;;;4.30;1.98;;;;;;;17.76;46.43;99660.03;1682000;85;21088;-86
2022/04/30 09:41:42;;;;;;;3.17;1.70;;;;;;;17.81;48.52;99656.73;1662894;85;21054;-85
2022/04/30 09:44:12;;;;;;;3.67;2.00;;;;;;;17.92;49.14;99653.16;1679981;84;20951;-85
2022/04/30 09:46:40;;;;;;;3.12;1.70;;;;;;;18.01;47.61;99654.06;1682991;84;21046;-86
2022/04/30 09:54:42;;;;;;;4.90;2.00;;;;;;;18.13;46.03;99643.42;1687723;85;21031;-86
2022/04/30 09:57:09;;;;;;;2.95;1.70;;;;;;;18.24;46.04;99637.19;1685129;84;21071;-86
2022/04/30 09:59:38;;;;;;;4.28;1.70;;;;;;;18.27;44.63;99634.87;1687539;84;21067;-85
2022/04/30 10:02:08;;;;;;;3.67;1.92;;;;;;;18.27;44.11;99634.87;1669556;84;21049;-86
2022/04/30 10:04:37;;;;;;;5.42;1.90;;;;;;;18.33;45.75;99631.94;1695250;84;21622;-85
2022/04/30 10:07:06;;;;;;;4.65;1.67;;;;;;;18.43;42.89;99622.66;1678670;84;21030;-86
2022/04/30 10:09:37;;;;;;;4.55;1.90;;;;;;;18.53;44.59;99618.27;1698444;84;21030;-84
2022/04/30 10:12:17;;;;;;;5.97;2.67;;;;;;;18.56;43.92;99615.02;1698605;84;21042;-86
2022/04/30 10:14:52;;;;;;;4.03;2.33;;;;;;;18.57;43.91;99618.03;1687608;85;21577;-86
2022/04/30 10:17:23;;;;;;;3.20;1.67;;;;;;;18.63;41.02;99609.82;1662801;85;21049;-86
2022/04/30 10:20:08;;;;;;;3.83;1.70;;;;;;;18.69;43.94;99611.30;1667457;85;21133;-84
2022/04/30 10:22:35;;;;;;;7.10;2.25;;;;;;;18.86;44.55;99603.88;1679919;85;21042;-85
2022/04/30 10:25:03;;;;;;;4.40;2.25;;;;;;;19.01;41.53;99607.52;1665467;85;21038;-85
2022/04/30 10:27:43;;;;;;;6.28;2.33;;;;;;;19.11;44.05;99587.66;1682094;84;21055;-86
2022/04/30 10:30:24;;;;;;;3.42;2.25;;;;;;;19.20;43.20;99592.45;1687634;85;21038;-84
2022/04/30 10:33:00;;;;;;;4.55;2.20;;;;;;;19.38;41.68;99587.15;1695112;84;21018;-84
2022/04/30 10:35:35;;;;;;;3.50;2.10;;;;;;;19.23;41.07;99581.73;1684848;85;21031;-84
2022/04/30 10:38:21;;;;;;;5.08;2.02;;;;;;;19.36;41.95;99582.39;1686086;84;21007;-84
2022/04/30 10:40:52;;;;;;;6.10;2.08;;;;;;;19.38;41.49;99581.87;1659957;86;21062;-84
2022/04/30 10:43:26;;;;;;;5.25;2.12;;;;;;;19.54;42.38;99576.15;1682576;84;21026;-86
2022/04/30 10:45:56;;;;;;;3.83;2.37;;;;;;;19.64;41.64;99572.55;1677419;85;21067;-86
2022/04/30 10:48:23;;;;;;;4.00;2.20;;;;;;;19.77;41.69;99575.38;1678288;85;21067;-85
2022/04/30 10:51:08;;;;;;;3.17;1.80;;;;;;;19.72;39.64;99574.32;1667287;85;21031;-86
2022/04/30 10:53:39;;;;;;;4.30;1.92;;;;;;;19.60;37.16;99570.54;1661275;84;21605;-86
2022/04/30 10:56:07;;;;;;;5.35;1.77;;;;;;;19.61;40.25;99559.03;1687838;84;21035;-85
2022/04/30 10:58:37;;;;;;;5.50;1.95;;;;;;;19.71;37.41;99563.38;1687791;84;21037;-85
2022/04/30 11:01:18;;;;;;;2.83;1.62;;;;;;;19.66;37.82;99569.36;1677543;85;21063;-85
2022/04/30 11:03:50;;;;;;;3.80;1.87;;;;;;;19.65;39.29;99557.09;1680595;85;21361;-84
2022/04/30 11:06:26;;;;;;;3.52;1.95;;;;;;;19.75;39.83;99560.10;1680870;85;21080;-86
2022/04/30 11:09:06;;;;;;;4.00;2.00;;;;;;;19.89;38.01;99565.93;1681111;84;21579;-84
2022/04/30 11:11:34;;;;;;;4.65;1.72;;;;;;;19.93;38.75;99561.70;1695640;84;21032;-85
2022/04/30 11:14:10;;;;;;;3.33;1.85;;;;;;;19.97;38.51;99552.67;1686985;84;21071;-85
2022/04/30 11:16:49;;;;;;;4.72;1.67;;;;;;;20.08;38.69;99555.20;1676597;85;21026;-86
2022/04/30 11:19:18;;;;;;;4.30;2.12;;;;;;;20.26;39.09;99545.73;1679660;84;21121;-85
2022/04/30 11:21:54;;;;;;;5.12;2.02;;;;;;;20.52;39.46;99546.00;1675082;84;21064;-85
2022/04/30 11:24:29;;;;;;;5.97;2.05;;;;;;;20.66;39.07;99525.41;1680947;85;21037;-85
2022/04/30 11:27:08;;;;;;;5.05;2.40;;;;;;;20.81;39.57;99539.03;1683003;84;21042;-85
2022/04/30 11:29:37;;;;;;;5.78;1.80;;;;;;;21.00;39.56;99532.61;1661689;85;21007;-86
2022/04/30 11:32:05;;;;;;;4.22;1.90;;;;;;;21.13;39.17;99536.21;1652317;85;21033;-86
2022/04/30 11:34:32;;;;;;;3.72;2.00;;;;;;;21.12;35.80;99525.24;1680950;85;21459;-86
2022/04/30 11:37:01;;;;;;;6.00;1.80;;;;;;;21.25;38.81;99531.96;1675964;85;21046;-86
2022/04/30 11:39:29;;;;;;;5.67;1.70;;;;;;;21.48;38.50;99523.92;1691033;85;21044;-86
2022/04/30 11:41:57;;;;;;;6.10;2.17;;;;;;;21.68;37.20;99523.97;1683900;84;21063;-86
2022/04/30 11:44:27;;;;;;;6.53;1.98;;;;;;;21.62;36.17;99515.94;1678813;85;20973;-85
2022/04/30 11:46:55;;;;;;;3.00;1.80;;;;;;;21.62;36.65;99513.78;1671069;84;21083;-86
2022/04/30 11:49:27;;;;;;;4.42;1.67;;;;;;;21.81;36.16;99508.16;1668760;85;21069;-85
2022/04/30 11:51:57;;;;;;;2.90;1.70;;;;;;;21.78;34.86;99503.05;1673907;84;20983;-86
2022/04/30 11:54:26;;;;;;;6.60;1.72;;;;;;;21.77;34.25;99506.66;1671289;85;21072;-86
2022/04/30 11:56:53;;;;;;;7.15;1.95;;;;;;;21.73;35.34;99502.52;1687624;84;21120;-86
2022/04/30 11:59:39;;;;;;;3.52;1.80;;;;;;;21.93;36.60;99490.63;1666647;85;21022;-86
2022/04/30 12:02:09;;;;;;;3.05;1.75;;;;;;;22.31;36.92;99480.16;1677408;84;21090;-86
2022/04/30 12:04:42;;;;;;;3.47;1.60;;;;;;;22.79;35.64;99479.55;1675114;85;21095;-84
2022/04/30 12:07:11;;;;;;;;;;;;;;;23.10;35.83;99479.60;1683429;84;21020;-86
2022/04/30 12:09:54;;;;;;;4.08;1.80;;;;;;;23.40;31.24;99483.67;1681304;85;20145;-86
2022/04/30 12:12:23;;;;;;;7.12;1.90;;;;;;;23.66;33.13;99478.28;1680108;85;21055;-85
2022/04/30 12:14:53;;;;;;;3.62;1.77;;;;;;;23.94;30.87;99479.28;1666997;84;21024;-86
2022/04/30 12:17:28;;;;;;;4.03;1.52;;;;;;;23.94;30.03;99467.33;1680631;85;21064;-86
2022/04/30 12:25:52;;;;;;;2.87;1.57;;;;;;;25.10;29.50;99468.63;1646239;87;21058;-86
2022/04/30 12:28:19;;;;;;;2.77;1.37;;;;;;;24.70;29.99;99462.95;1679788;84;21023;-85